createdAt,value
2022-08-26T00:01:44.822Z,98938.66
2022-08-26T00:04:12.576Z,98932.47
2022-08-26T00:06:42.677Z,98929.19
2022-08-26T00:09:16.042Z,98932.38
2022-08-26T00:11:44.778Z,98934.44
2022-08-26T00:14:13.357Z,98927.88
2022-08-26T00:16:47.897Z,98934.94
2022-08-26T00:19:21.067Z,98928.03
2022-08-26T00:21:50.395Z,98930.94
2022-08-26T00:24:20.864Z,98924.28
2022-08-26T00:26:48.687Z,98932.94
2022-08-26T00:29:16.698Z,98928.50
2022-08-26T00:31:45.227Z,98924.28
2022-08-26T00:34:13.010Z,98917.50
2022-08-26T00:36:40.994Z,98916.66
2022-08-26T00:39:08.759Z,98921.47
2022-08-26T00:41:38.652Z,98919.47
2022-08-26T00:44:06.665Z,98920.09
2022-08-26T00:46:37.177Z,98914.69
2022-08-26T00:49:15.933Z,98917.03
2022-08-26T00:51:50.966Z,98914.56
2022-08-26T00:54:21.737Z,98923.34
2022-08-26T00:57:02.719Z,98921.97
2022-08-26T00:59:33.182Z,98921.00
2022-08-26T01:02:02.731Z,98919.59
2022-08-26T01:04:34.716Z,98921.72
2022-08-26T01:07:02.296Z,98921.84
2022-08-26T01:09:29.901Z,98920.88
2022-08-26T01:12:00.673Z,98916.44
2022-08-26T01:14:33.863Z,98916.00
2022-08-26T01:17:06.235Z,98910.72
2022-08-26T01:19:43.463Z,98912.47
2022-08-26T01:22:17.701Z,98917.75
2022-08-26T01:24:44.457Z,98916.00
2022-08-26T01:27:14.464Z,98925.81
2022-08-26T01:29:43.845Z,98923.81
2022-08-26T01:32:14.549Z,98913.31
2022-08-26T01:34:42.163Z,98923.69
2022-08-26T01:37:16.767Z,98918.44
2022-08-26T01:39:47.349Z,98930.59
2022-08-26T01:42:16.865Z,98922.84
2022-08-26T01:44:52.086Z,98925.44
2022-08-26T01:47:21.635Z,98914.31
2022-08-26T01:49:51.551Z,98921.34
2022-08-26T01:52:28.016Z,98923.69
2022-08-26T01:54:57.486Z,98917.38
2022-08-26T01:57:24.996Z,98919.69
2022-08-26T01:59:55.412Z,98917.25
2022-08-26T02:02:24.462Z,98921.38
2022-08-26T02:04:57.339Z,98915.75
2022-08-26T02:07:26.707Z,98914.56
2022-08-26T02:09:54.634Z,98915.28
2022-08-26T02:12:21.546Z,98915.63
2022-08-26T02:14:53.776Z,98912.00
2022-08-26T02:17:25.925Z,98905.56
2022-08-26T02:19:53.328Z,98907.09
2022-08-26T02:22:22.528Z,98906.50
2022-08-26T02:24:52.795Z,98911.53
2022-08-26T02:27:22.623Z,98910.25
2022-08-26T02:29:53.554Z,98907.31
2022-08-26T02:32:20.251Z,98896.09
2022-08-26T02:34:47.315Z,98900.91
2022-08-26T02:37:14.521Z,98903.13
2022-08-26T02:39:44.682Z,98893.66
2022-08-26T02:42:11.690Z,98898.44
2022-08-26T02:44:38.580Z,98895.88
2022-08-26T02:47:07.594Z,98898.34
2022-08-26T02:49:34.530Z,98894.59
2022-08-26T02:52:01.915Z,98895.75
2022-08-26T02:54:28.947Z,98894.81
2022-08-26T02:56:56.324Z,98884.28
2022-08-26T02:59:24.433Z,98893.66
2022-08-26T03:01:52.694Z,98896.00
2022-08-26T03:04:23.479Z,98883.25
2022-08-26T03:06:53.454Z,98886.38
2022-08-26T03:09:22.935Z,98877.13
2022-08-26T03:11:50.742Z,98874.34
2022-08-26T03:14:17.450Z,98875.97
2022-08-26T03:16:44.478Z,98871.88
2022-08-26T03:19:15.254Z,98881.00
2022-08-26T03:21:44.818Z,98878.44
2022-08-26T03:24:15.255Z,98871.19
2022-08-26T03:26:52.062Z,98868.59
2022-08-26T03:29:39.663Z,98876.06
2022-08-26T03:32:06.614Z,98874.81
2022-08-26T03:34:33.748Z,98874.94
2022-08-26T03:37:01.268Z,98877.72
2022-08-26T03:39:28.762Z,98873.75
2022-08-26T03:41:58.947Z,98867.41
2022-08-26T03:44:26.693Z,98876.69
2022-08-26T03:46:54.542Z,98867.41
2022-08-26T03:49:22.195Z,98865.88
2022-08-26T03:51:49.246Z,98862.97
2022-08-26T03:54:17.105Z,98864.38
2022-08-26T03:56:43.868Z,98859.22
2022-08-26T03:59:13.556Z,98858.50
2022-08-26T04:01:40.704Z,98862.03
2022-08-26T04:04:07.642Z,98866.47
2022-08-26T04:06:42.991Z,98861.56
2022-08-26T04:09:17.676Z,98866.13
2022-08-26T04:11:46.038Z,98861.56
2022-08-26T04:14:20.370Z,98862.13
2022-08-26T04:16:48.260Z,98870.56
2022-08-26T04:19:16.695Z,98870.44
2022-08-26T04:21:44.569Z,98873.94
2022-08-26T04:24:15.602Z,98870.00
2022-08-26T04:26:43.740Z,98873.28
2022-08-26T04:29:26.214Z,98874.63
2022-08-26T04:31:57.173Z,98876.66
2022-08-26T04:34:28.488Z,98880.28
2022-08-26T04:36:56.578Z,98873.34
2022-08-26T04:39:23.603Z,98876.72
2022-08-26T04:41:54.813Z,98865.50
2022-08-26T04:44:22.549Z,98863.88
2022-08-26T04:46:50.760Z,98865.00
2022-08-26T04:49:17.955Z,98862.31
2022-08-26T04:51:45.342Z,98867.31
2022-08-26T04:54:12.205Z,98857.44
2022-08-26T04:56:42.770Z,98859.19
2022-08-26T04:59:17.000Z,98863.19
2022-08-26T05:01:51.328Z,98859.47
2022-08-26T05:04:20.116Z,98861.59
2022-08-26T05:06:48.228Z,98863.94
2022-08-26T05:09:16.023Z,98866.56
2022-08-26T05:11:42.736Z,98873.63
2022-08-26T05:14:10.551Z,98872.13
2022-08-26T05:16:37.796Z,98865.50
2022-08-26T05:19:08.486Z,98867.88
2022-08-26T05:21:35.935Z,98873.53
2022-08-26T05:24:02.926Z,98869.38
2022-08-26T05:26:32.292Z,98867.63
2022-08-26T05:28:59.124Z,98870.06
2022-08-26T05:31:29.650Z,98868.72
2022-08-26T05:33:57.700Z,98875.97
2022-08-26T05:36:27.362Z,98864.25
2022-08-26T05:38:55.730Z,98872.69
2022-08-26T05:41:34.339Z,98859.63
2022-08-26T05:44:06.282Z,98873.28
2022-08-26T05:46:33.690Z,98870.44
2022-08-26T05:49:02.241Z,98877.75
2022-08-26T05:51:30.494Z,98882.53
2022-08-26T05:53:58.541Z,98888.94
2022-08-26T05:56:27.564Z,98884.50
2022-08-26T05:58:56.281Z,98900.13
2022-08-26T06:01:27.524Z,98899.94
2022-08-26T06:03:57.675Z,98909.50
2022-08-26T06:06:32.490Z,98909.66
2022-08-26T06:09:02.337Z,98909.75
2022-08-26T06:11:32.169Z,98914.09
2022-08-26T06:14:03.968Z,98904.25
2022-08-26T06:16:34.728Z,98904.03
2022-08-26T06:19:03.409Z,98905.22
2022-08-26T06:21:40.070Z,98899.25
2022-08-26T06:24:28.081Z,98898.97
2022-08-26T06:26:57.328Z,98913.53
2022-08-26T06:29:26.181Z,98903.41
2022-08-26T06:31:54.303Z,98901.84
2022-08-26T06:34:29.829Z,98900.22
2022-08-26T06:37:06.479Z,98903.88
2022-08-26T06:39:33.401Z,98905.00
2022-08-26T06:42:00.698Z,98905.78
2022-08-26T06:44:29.892Z,98903.44
2022-08-26T06:46:56.593Z,98899.69
2022-08-26T06:49:26.999Z,98901.38
2022-08-26T06:51:58.334Z,98889.81
2022-08-26T06:54:25.672Z,98899.44
2022-08-26T06:56:52.351Z,98892.97
2022-08-26T06:59:19.052Z,98890.09
2022-08-26T07:01:46.564Z,98888.97
2022-08-26T07:04:20.259Z,98900.25
2022-08-26T07:06:52.245Z,98898.09
2022-08-26T07:09:21.322Z,98897.31
2022-08-26T07:11:48.223Z,98896.38
2022-08-26T07:14:16.834Z,98890.06
2022-08-26T07:16:47.418Z,98883.69
2022-08-26T07:19:14.428Z,98883.47
2022-08-26T07:21:44.113Z,98885.16
2022-08-26T07:24:11.358Z,98871.84
2022-08-26T07:26:39.091Z,98876.72
2022-08-26T07:29:12.490Z,98872.44
2022-08-26T07:31:42.700Z,98867.78
2022-08-26T07:34:11.746Z,98869.41
2022-08-26T07:36:38.397Z,98869.94
2022-08-26T07:39:06.124Z,98861.00
2022-08-26T07:41:33.305Z,98866.94
2022-08-26T07:44:00.894Z,98867.69
2022-08-26T07:46:30.301Z,98870.97
2022-08-26T07:48:58.457Z,98861.72
2022-08-26T07:51:25.649Z,98868.28
2022-08-26T07:53:53.835Z,98859.38
2022-08-26T07:56:23.602Z,98864.75
2022-08-26T07:58:52.971Z,98866.56
2022-08-26T08:01:25.726Z,98864.38
2022-08-26T08:03:53.827Z,98864.56
2022-08-26T08:06:27.249Z,98861.53
2022-08-26T08:08:56.230Z,98863.56
2022-08-26T08:11:26.363Z,98863.59
2022-08-26T08:13:56.357Z,98859.97
2022-08-26T08:16:26.111Z,98857.97
2022-08-26T08:18:53.514Z,98860.19
2022-08-26T08:21:21.988Z,98854.84
2022-08-26T08:23:55.425Z,98850.22
2022-08-26T08:26:23.414Z,98853.41
2022-08-26T08:28:50.749Z,98846.78
2022-08-26T08:31:55.872Z,98854.81
2022-08-26T08:34:19.494Z,98852.47
2022-08-26T08:36:48.800Z,98847.22
2022-08-26T08:39:17.326Z,98853.81
2022-08-26T08:42:08.955Z,98844.63
2022-08-26T08:44:44.519Z,98843.59
2022-08-26T08:47:34.499Z,98847.25
2022-08-26T08:50:25.937Z,98835.44
2022-08-26T08:53:10.172Z,98842.38
2022-08-26T08:55:48.752Z,98844.19
2022-08-26T08:58:20.902Z,98834.34
2022-08-26T09:01:09.856Z,98841.56
2022-08-26T09:03:57.344Z,98837.41
2022-08-26T09:06:25.365Z,98836.00
2022-08-26T09:08:56.346Z,98839.06
2022-08-26T09:11:23.367Z,98831.59
2022-08-26T09:13:55.102Z,98832.03
2022-08-26T09:16:36.365Z,98833.88
2022-08-26T09:19:24.305Z,98824.75
2022-08-26T09:21:59.577Z,98833.44
2022-08-26T09:24:29.423Z,98826.09
2022-08-26T09:26:58.950Z,98828.94
2022-08-26T09:29:27.210Z,98830.47
2022-08-26T09:32:20.220Z,98835.44
2022-08-26T09:35:10.846Z,98828.25
2022-08-26T09:40:34.647Z,98827.53
2022-08-26T09:43:22.472Z,98829.25
2022-08-26T09:45:59.223Z,98832.03
2022-08-26T09:48:34.828Z,98824.66
2022-08-26T09:51:06.915Z,98825.44
2022-08-26T09:53:50.009Z,98822.22
2022-08-26T09:56:32.726Z,98824.28
2022-08-26T09:59:01.029Z,98821.25
2022-08-26T10:01:41.836Z,98812.19
2022-08-26T10:04:10.430Z,98815.03
2022-08-26T10:06:57.426Z,98818.50
2022-08-26T10:09:25.816Z,98817.31
2022-08-26T10:11:59.163Z,98819.63
2022-08-26T10:14:33.839Z,98806.19
2022-08-26T10:17:24.395Z,98803.78
2022-08-26T10:19:57.838Z,98807.09
2022-08-26T10:22:35.190Z,98801.78
2022-08-26T10:25:06.740Z,98798.44
2022-08-26T10:27:54.922Z,98799.25
2022-08-26T10:30:27.606Z,98799.50
2022-08-26T10:33:18.526Z,98795.56
2022-08-26T10:36:01.844Z,98787.19
2022-08-26T10:38:39.025Z,98788.22
2022-08-26T10:41:15.858Z,98780.88
2022-08-26T10:43:53.490Z,98781.47
2022-08-26T10:46:27.393Z,98775.75
2022-08-26T10:49:10.434Z,98779.41
2022-08-26T10:51:47.506Z,98775.53
2022-08-26T10:54:46.556Z,98778.38
2022-08-26T10:57:25.154Z,98768.28
2022-08-26T11:00:41.564Z,98761.06
2022-08-26T11:03:35.670Z,98756.75
2022-08-26T11:06:28.780Z,98757.50
2022-08-26T11:09:01.155Z,98757.34
2022-08-26T11:11:47.016Z,98761.09
2022-08-26T11:14:28.527Z,98755.53
2022-08-26T11:16:57.690Z,98757.28
2022-08-26T11:19:59.460Z,98748.28
2022-08-26T11:22:38.162Z,98753.22
2022-08-26T11:25:19.128Z,98743.41
2022-08-26T11:27:46.471Z,98743.91
2022-08-26T11:30:13.137Z,98732.50
2022-08-26T11:32:40.164Z,98721.91
2022-08-26T11:35:13.494Z,98722.56
2022-08-26T11:37:40.614Z,98724.88
2022-08-26T11:40:25.111Z,98715.84
2022-08-26T11:42:57.179Z,98721.00
2022-08-26T11:45:38.396Z,98719.72
2022-08-26T11:48:44.126Z,98720.09
2022-08-26T11:51:29.281Z,98716.16
2022-08-26T11:54:35.468Z,98713.03
2022-08-26T11:57:07.938Z,98696.59
2022-08-26T11:59:41.894Z,98690.97
2022-08-26T12:02:17.726Z,98690.28
2022-08-26T12:04:48.848Z,98683.50
2022-08-26T12:07:18.494Z,98686.56
2022-08-26T12:10:11.125Z,98684.81
2022-08-26T12:12:42.476Z,98679.16
2022-08-26T12:15:14.605Z,98680.78
2022-08-26T12:17:42.430Z,98679.53
2022-08-26T12:20:46.429Z,98669.97
2022-08-26T12:23:39.292Z,98669.16
2022-08-26T12:26:11.408Z,98668.59
2022-08-26T12:28:46.492Z,98661.84
2022-08-26T12:31:21.583Z,98662.56
2022-08-26T12:33:49.538Z,98655.13
2022-08-26T12:36:28.626Z,98662.47
2022-08-26T12:38:58.231Z,98652.16
2022-08-26T12:41:39.325Z,98651.81
2022-08-26T12:44:05.993Z,98644.13
2022-08-26T12:46:32.865Z,98643.78
2022-08-26T12:49:01.770Z,98639.31
2022-08-26T12:51:32.417Z,98643.09
2022-08-26T12:53:59.870Z,98646.00
2022-08-26T12:56:35.570Z,98646.50
2022-08-26T12:59:05.383Z,98641.66
2022-08-26T13:01:43.589Z,98635.22
2022-08-26T13:04:37.326Z,98635.69
2022-08-26T13:07:20.135Z,98634.94
2022-08-26T13:09:47.234Z,98630.88
2022-08-26T13:12:34.428Z,98631.06
2022-08-26T13:15:02.565Z,98632.22
2022-08-26T13:17:30.485Z,98626.81
2022-08-26T13:20:03.252Z,98624.72
2022-08-26T13:22:30.827Z,98617.16
2022-08-26T13:24:57.899Z,98614.81
2022-08-26T13:27:26.405Z,98611.69
2022-08-26T13:29:54.369Z,98607.25
2022-08-26T13:32:22.576Z,98610.69
2022-08-26T13:34:55.341Z,98594.59
2022-08-26T13:37:24.378Z,98607.69
2022-08-26T13:40:01.948Z,98603.13
2022-08-26T13:42:29.363Z,98602.59
2022-08-26T13:44:58.113Z,98592.94
2022-08-26T13:47:26.056Z,98597.06
2022-08-26T13:49:55.230Z,98587.56
2022-08-26T13:52:30.251Z,98575.16
2022-08-26T13:55:00.249Z,98577.41
2022-08-26T13:57:28.535Z,98577.09
2022-08-26T13:59:57.087Z,98579.56
2022-08-26T14:02:23.849Z,98576.88
2022-08-26T14:04:50.722Z,98582.34
2022-08-26T14:07:17.702Z,98573.56
2022-08-26T14:09:44.370Z,98573.84
2022-08-26T14:12:11.085Z,98568.25
2022-08-26T14:14:40.770Z,98565.25
2022-08-26T14:17:07.488Z,98575.56
2022-08-26T14:19:34.210Z,98568.09
2022-08-26T14:22:01.772Z,98563.31
2022-08-26T14:24:29.106Z,98569.03
2022-08-26T14:26:56.031Z,98566.00
2022-08-26T14:29:22.688Z,98560.78
2022-08-26T14:31:49.473Z,98553.53
2022-08-26T14:34:16.246Z,98550.78
2022-08-26T14:36:43.473Z,98556.97
2022-08-26T14:39:13.274Z,98550.00
2022-08-26T14:41:53.996Z,98546.97
2022-08-26T14:44:25.896Z,98548.41
2022-08-26T14:46:53.474Z,98547.94
2022-08-26T14:49:22.020Z,98551.34
2022-08-26T14:51:49.174Z,98546.88
2022-08-26T14:54:17.768Z,98554.53
2022-08-26T14:56:49.022Z,98552.66
2022-08-26T14:59:20.297Z,98550.91
2022-08-26T15:01:47.983Z,98556.03
2022-08-26T15:04:15.255Z,98558.03
2022-08-26T15:06:42.332Z,98557.59
2022-08-26T15:09:09.330Z,98551.75
2022-08-26T15:11:36.264Z,98545.31
2022-08-26T15:14:03.117Z,98543.28
2022-08-26T15:16:29.961Z,98550.03
2022-08-26T15:18:56.881Z,98548.59
2022-08-26T15:21:25.084Z,98546.56
2022-08-26T15:23:53.685Z,98547.97
2022-08-26T15:26:21.785Z,98542.78
2022-08-26T15:28:48.934Z,98537.63
2022-08-26T15:31:16.394Z,98544.38
2022-08-26T15:33:43.108Z,98538.44
2022-08-26T15:36:09.947Z,98525.13
2022-08-26T15:38:41.428Z,98527.63
2022-08-26T15:41:08.751Z,98529.31
2022-08-26T15:43:37.333Z,98527.47
2022-08-26T15:46:04.563Z,98520.69
2022-08-26T15:48:31.800Z,98530.13
2022-08-26T15:51:01.450Z,98538.16
2022-08-26T15:53:32.213Z,98532.97
2022-08-26T15:56:00.134Z,98541.28
2022-08-26T15:58:28.375Z,98546.38
2022-08-26T16:00:56.413Z,98540.81
2022-08-26T16:03:23.186Z,98537.47
2022-08-26T16:05:50.210Z,98533.38
2022-08-26T16:08:17.139Z,98543.06
2022-08-26T16:10:50.041Z,98529.16
2022-08-26T16:13:18.844Z,98535.13
2022-08-26T16:15:47.429Z,98532.56
2022-08-26T16:18:15.508Z,98536.63
2022-08-26T16:21:05.013Z,98536.47
2022-08-26T16:23:38.433Z,98532.50
2022-08-26T16:26:13.546Z,98533.13
2022-08-26T16:28:40.190Z,98528.06
2022-08-26T16:31:07.441Z,98525.81
2022-08-26T16:33:34.143Z,98521.78
2022-08-26T16:36:00.872Z,98516.97
2022-08-26T16:38:27.643Z,98521.63
2022-08-26T16:40:54.326Z,98526.53
2022-08-26T16:43:21.188Z,98525.63
2022-08-26T16:45:47.970Z,98520.97
2022-08-26T16:48:14.615Z,98528.25
2022-08-26T16:50:41.986Z,98526.78
2022-08-26T16:53:15.964Z,98525.31
2022-08-26T16:55:48.108Z,98531.22
2022-08-26T16:58:15.161Z,98531.31
2022-08-26T17:00:42.058Z,98525.50
2022-08-26T17:03:09.979Z,98529.59
2022-08-26T17:05:37.190Z,98528.13
2022-08-26T17:08:05.020Z,98528.78
2022-08-26T17:10:32.828Z,98524.22
2022-08-26T17:13:00.765Z,98528.84
2022-08-26T17:15:27.550Z,98522.44
2022-08-26T17:17:54.645Z,98523.78
2022-08-26T17:20:24.064Z,98518.50
2022-08-26T17:22:52.476Z,98527.91
2022-08-26T17:25:28.395Z,98522.34
2022-08-26T17:30:25.543Z,98514.53
2022-08-26T17:32:52.898Z,98514.41
2022-08-26T17:35:19.800Z,98517.91
2022-08-26T17:37:46.927Z,98521.91
2022-08-26T17:40:16.827Z,98531.25
2022-08-26T17:42:43.838Z,98520.41
2022-08-26T17:45:11.715Z,98525.81
2022-08-26T17:47:39.049Z,98528.97
2022-08-26T17:50:09.278Z,98531.75
2022-08-26T17:52:37.198Z,98522.69
2022-08-26T17:55:06.288Z,98525.41
2022-08-26T17:57:33.250Z,98536.97
2022-08-26T18:00:13.027Z,98532.06
2022-08-26T18:02:39.991Z,98523.97
2022-08-26T18:05:08.337Z,98531.44
2022-08-26T18:07:43.763Z,98526.59
2022-08-26T18:10:13.829Z,98534.22
2022-08-26T18:12:41.605Z,98539.13
2022-08-26T18:15:10.518Z,98533.16
2022-08-26T18:17:41.658Z,98540.81
2022-08-26T18:20:10.979Z,98539.22
2022-08-26T18:22:37.803Z,98548.44
2022-08-26T18:25:06.121Z,98546.28
2022-08-26T18:27:33.084Z,98551.72
2022-08-26T18:29:59.990Z,98549.78
2022-08-26T18:32:28.379Z,98559.00
2022-08-26T18:34:55.026Z,98550.63
2022-08-26T18:37:21.682Z,98542.22
2022-08-26T18:39:48.633Z,98552.22
2022-08-26T18:42:15.645Z,98558.91
2022-08-26T18:44:42.287Z,98558.44
2022-08-26T18:47:09.033Z,98554.94
2022-08-26T18:49:35.682Z,98566.84
2022-08-26T18:52:02.463Z,98566.22
2022-08-26T18:54:30.003Z,98564.03
2022-08-26T18:56:56.696Z,98569.44
2022-08-26T18:59:28.460Z,98570.25
2022-08-26T19:01:57.596Z,98571.03
2022-08-26T19:04:25.683Z,98575.09
2022-08-26T19:06:52.907Z,98580.25
2022-08-26T19:09:20.933Z,98581.56
2022-08-26T19:11:49.651Z,98585.03
2022-08-26T19:14:18.195Z,98581.22
2022-08-26T19:16:48.481Z,98587.81
2022-08-26T19:19:16.002Z,98586.66
2022-08-26T19:21:42.772Z,98592.47
2022-08-26T19:24:15.345Z,98590.22
2022-08-26T19:26:48.347Z,98599.97
2022-08-26T19:31:48.474Z,98597.88
2022-08-26T19:34:15.795Z,98597.00
2022-08-26T19:36:46.671Z,98606.81
2022-08-26T19:39:13.819Z,98614.00
2022-08-26T19:41:40.907Z,98608.50
2022-08-26T19:44:33.612Z,98612.59
2022-08-26T19:47:00.945Z,98602.34
2022-08-26T19:49:27.627Z,98610.44
2022-08-26T19:51:54.477Z,98613.53
2022-08-26T19:54:23.995Z,98616.75
2022-08-26T19:56:50.920Z,98626.31
2022-08-26T19:59:18.137Z,98625.50
2022-08-26T20:01:44.808Z,98623.00
2022-08-26T20:04:12.455Z,98627.63
2022-08-26T20:06:39.721Z,98617.03
2022-08-26T20:09:06.464Z,98617.72
2022-08-26T20:11:33.122Z,98623.50
2022-08-26T20:13:59.854Z,98617.66
2022-08-26T20:16:26.558Z,98623.38
2022-08-26T20:19:11.834Z,98613.97
2022-08-26T20:21:40.648Z,98618.56
2022-08-26T20:24:13.966Z,98612.53
2022-08-26T20:26:43.326Z,98623.34
2022-08-26T20:29:17.600Z,98612.81
2022-08-26T20:31:44.799Z,98611.72
2022-08-26T20:34:18.460Z,98614.69
2022-08-26T20:36:47.569Z,98620.09
2022-08-26T20:39:16.247Z,98614.72
2022-08-26T20:41:43.859Z,98617.97
2022-08-26T20:44:10.575Z,98620.13
2022-08-26T20:46:37.587Z,98616.66
2022-08-26T20:49:05.952Z,98617.16
2022-08-26T20:51:35.218Z,98612.59
2022-08-26T20:54:01.926Z,98617.78
2022-08-26T20:56:28.587Z,98614.53
2022-08-26T20:58:59.951Z,98613.44
2022-08-26T21:01:30.754Z,98601.78
2022-08-26T21:03:57.670Z,98599.09
2022-08-26T21:06:24.908Z,98599.34
2022-08-26T21:08:51.616Z,98604.53
2022-08-26T21:11:19.668Z,98609.94
2022-08-26T21:14:04.504Z,98611.53
2022-08-26T21:16:36.175Z,98609.09
2022-08-26T21:19:07.815Z,98606.63
2022-08-26T21:21:35.054Z,98613.66
2022-08-26T21:24:02.981Z,98604.47
2022-08-26T21:26:29.821Z,98611.75
2022-08-26T21:28:56.505Z,98603.38
2022-08-26T21:31:25.015Z,98608.47
2022-08-26T21:33:51.976Z,98609.28
2022-08-26T21:36:19.579Z,98609.75
2022-08-26T21:38:46.791Z,98608.59
2022-08-26T21:41:18.664Z,98608.09
2022-08-26T21:43:46.855Z,98604.28
2022-08-26T21:46:17.326Z,98612.81
2022-08-26T21:48:50.544Z,98611.75
2022-08-26T21:51:19.999Z,98611.75
2022-08-26T21:53:46.955Z,98616.66
2022-08-26T21:56:16.225Z,98625.75
2022-08-26T21:58:43.167Z,98623.16
2022-08-26T22:01:20.720Z,98628.97
2022-08-26T22:03:48.581Z,98616.06
2022-08-26T22:06:21.593Z,98615.53
2022-08-26T22:08:48.367Z,98618.44
2022-08-26T22:11:15.765Z,98615.25
2022-08-26T22:13:43.437Z,98610.34
2022-08-26T22:16:11.461Z,98609.97
2022-08-26T22:18:38.995Z,98609.91
2022-08-26T22:21:08.455Z,98611.25
2022-08-26T22:23:37.107Z,98608.88
2022-08-26T22:26:05.264Z,98611.31
2022-08-26T22:28:31.987Z,98616.84
2022-08-26T22:30:59.070Z,98615.97
2022-08-26T22:33:25.939Z,98613.06
2022-08-26T22:35:53.300Z,98619.13
2022-08-26T22:38:20.717Z,98615.75
2022-08-26T22:40:56.007Z,98621.56
2022-08-26T22:43:26.008Z,98628.53
2022-08-26T22:45:53.074Z,98640.28
2022-08-26T22:48:23.095Z,98635.31
2022-08-26T22:50:58.226Z,98643.31
2022-08-26T22:53:26.331Z,98640.63
2022-08-26T22:55:53.151Z,98649.06
2022-08-26T22:58:20.491Z,98652.47
2022-08-26T23:00:49.827Z,98652.97
2022-08-26T23:03:18.329Z,98645.56
2022-08-26T23:05:45.485Z,98647.53
2022-08-26T23:08:13.483Z,98650.66
2022-08-26T23:10:43.495Z,98643.34
2022-08-26T23:13:11.241Z,98647.28
2022-08-26T23:15:38.581Z,98647.72
2022-08-26T23:18:06.337Z,98645.44
2022-08-26T23:20:33.188Z,98650.22
2022-08-26T23:23:00.239Z,98646.50
2022-08-26T23:25:29.601Z,98648.31
2022-08-26T23:27:57.261Z,98648.44
2022-08-26T23:30:26.587Z,98641.44
2022-08-26T23:32:53.682Z,98636.66
2022-08-26T23:35:21.683Z,98638.38
2022-08-26T23:37:51.535Z,98638.47
2022-08-26T23:40:23.192Z,98638.53
2022-08-26T23:42:51.600Z,98641.19
2022-08-26T23:45:19.900Z,98642.13
2022-08-26T23:47:47.400Z,98643.25
2022-08-26T23:50:14.114Z,98641.38
2022-08-26T23:52:59.566Z,98642.19
2022-08-26T23:55:27.097Z,98642.19
2022-08-26T23:57:54.304Z,98642.03
